Ellaville, Georgia
Current Conditions -  °F | °C
As of 12:55 AM on Sunday 23 Nov 2014 (Local Time) from KACJ Reporting Station
Light Rain Light Rain  
Wind Chill: 55°   Ceiling: 700
Heat Index: 55°   Visibility: 7mi
Dew Point: 55°   Wind: 8mph
Humidity: 100%   Direction: 100°E
Pressure: 30.13"   Gusts: NA
Location:  32.24°N, 84.31°W
Report Text: KACJ 230555Z AUTO 10007KT 7SM -RA OVC007 13/13 A3013 RMK AO2
Loading
Personal Weather Stations






























Interactive Weather Map New forecast layout! Learn more

10-Day Weather Forecast

Advertisements
Track Severe Weather on mobile